createdAt,value
2022-12-12T00:00:09.402Z,-5.02
2022-12-12T00:01:09.726Z,-5
2022-12-12T00:02:09.304Z,-5
2022-12-12T00:03:09.759Z,-5.04
2022-12-12T00:04:09.562Z,-5.02
2022-12-12T00:05:09.678Z,-5.02
2022-12-12T00:06:09.531Z,-5.02
2022-12-12T00:07:08.982Z,-5.04
2022-12-12T00:08:09.422Z,-5.04
2022-12-12T00:09:09.189Z,-5.01
2022-12-12T00:10:09.186Z,-5.04
2022-12-12T00:11:09.152Z,-5.05
2022-12-12T00:12:09.393Z,-4.97
2022-12-12T00:13:08.857Z,-4.98
2022-12-12T00:14:09.347Z,-5.04
2022-12-12T00:15:16.145Z,-5
2022-12-12T00:16:14.746Z,-5.05
2022-12-12T00:17:08.757Z,-5.02
2022-12-12T00:18:14.078Z,-5.04
2022-12-12T00:19:09.261Z,-4.98
2022-12-12T00:20:08.715Z,-5.01
2022-12-12T00:21:08.923Z,-5.01
2022-12-12T00:22:09.163Z,-5.05
2022-12-12T00:23:09.137Z,-5.02
2022-12-12T00:24:08.856Z,-5.04
2022-12-12T00:25:08.839Z,-5.05
2022-12-12T00:26:08.554Z,-5.01
2022-12-12T00:27:08.797Z,-5.01
2022-12-12T00:28:09.029Z,-5.02
2022-12-12T00:29:08.499Z,-5.01
2022-12-12T00:30:08.475Z,-5.02
2022-12-12T00:31:09.162Z,-5.07
2022-12-12T00:32:08.432Z,-5
2022-12-12T00:33:08.915Z,-4.94
2022-12-12T00:34:08.893Z,-4.97
2022-12-12T00:35:08.652Z,-5.02
2022-12-12T00:36:09.869Z,-5.04
2022-12-12T00:37:09.597Z,-5.04
2022-12-12T00:38:09.821Z,-5.04
2022-12-12T00:39:13.851Z,-5
2022-12-12T00:40:09.529Z,-4.92
2022-12-12T00:41:09.509Z,-4.9
2022-12-12T00:42:09.734Z,-4.84
2022-12-12T00:43:09.461Z,-4.89
2022-12-12T00:44:09.436Z,-4.86
2022-12-12T00:45:09.486Z,-4.83
2022-12-12T00:46:09.559Z,-4.82
2022-12-12T00:47:09.424Z,-4.86
2022-12-12T00:48:09.598Z,-4.89
2022-12-12T00:49:09.584Z,-4.93
2022-12-12T00:50:09.313Z,-4.92
2022-12-12T00:51:09.317Z,-4.87
2022-12-12T00:52:09.000Z,-4.93
2022-12-12T00:53:08.985Z,-4.9
2022-12-12T00:54:09.214Z,-4.89
2022-12-12T00:55:09.532Z,-4.92
2022-12-12T00:56:09.205Z,-4.94
2022-12-12T00:57:09.396Z,-4.98
2022-12-12T00:58:09.121Z,-4.94
2022-12-12T00:59:08.850Z,-4.93
2022-12-12T01:00:09.072Z,-4.93
2022-12-12T01:01:09.105Z,-4.94
2022-12-12T01:02:09.680Z,-4.94
2022-12-12T01:03:09.547Z,-4.93
2022-12-12T01:04:08.992Z,-4.97
2022-12-12T01:05:08.754Z,-4.94
2022-12-12T01:06:08.690Z,-4.93
2022-12-12T01:07:09.206Z,-4.97
2022-12-12T01:08:09.215Z,-4.93
2022-12-12T01:09:09.125Z,-4.94
2022-12-12T01:10:08.850Z,-4.97
2022-12-12T01:11:08.834Z,-4.9
2022-12-12T01:12:09.071Z,-4.92
2022-12-12T01:13:08.538Z,-5
2022-12-12T01:14:08.763Z,-4.89
2022-12-12T01:15:09.012Z,-4.93
2022-12-12T01:16:09.282Z,-4.89
2022-12-12T01:17:08.448Z,-4.93
2022-12-12T01:18:08.680Z,-4.89
2022-12-12T01:19:08.705Z,-4.84
2022-12-12T01:20:08.885Z,-4.92
2022-12-12T01:21:08.358Z,-4.9
2022-12-12T01:22:08.591Z,-4.93
2022-12-12T01:23:08.838Z,-4.94
2022-12-12T01:24:08.801Z,-4.93
2022-12-12T01:25:08.260Z,-4.92
2022-12-12T01:26:08.495Z,-4.9
2022-12-12T01:27:08.725Z,-5.01
2022-12-12T01:28:08.713Z,-4.92
2022-12-12T01:29:08.432Z,-4.92
2022-12-12T01:30:08.413Z,-4.87
2022-12-12T01:31:08.578Z,-4.89
2022-12-12T01:32:08.625Z,-4.89
2022-12-12T01:33:08.345Z,-4.93
2022-12-12T01:35:08.604Z,-4.83
2022-12-12T01:36:08.536Z,-4.92
2022-12-12T01:37:08.244Z,-4.82
2022-12-12T01:38:08.486Z,-4.92
2022-12-12T01:39:08.545Z,-4.75
2022-12-12T01:40:08.183Z,-4.75
2022-12-12T01:41:08.155Z,-4.84
2022-12-12T01:42:08.132Z,-4.73
2022-12-12T01:43:08.111Z,-4.73
2022-12-12T01:44:08.103Z,-4.87
2022-12-12T01:45:08.065Z,-4.84
2022-12-12T01:46:07.836Z,-4.9
2022-12-12T01:47:07.767Z,-4.87
2022-12-12T01:48:10.086Z,-4.87
2022-12-12T01:49:08.254Z,-4.84
2022-12-12T01:50:08.200Z,-4.89
2022-12-12T01:51:08.241Z,-4.86
2022-12-12T01:52:07.914Z,-4.84
2022-12-12T01:53:08.144Z,-4.86
2022-12-12T01:54:07.860Z,-4.83
2022-12-12T01:55:08.128Z,-4.89
2022-12-12T01:56:08.091Z,-4.83
2022-12-12T01:57:07.904Z,-4.9
2022-12-12T01:58:08.165Z,-4.84
2022-12-12T01:59:08.155Z,-4.76
2022-12-12T02:00:08.135Z,-4.71
2022-12-12T02:01:07.787Z,-4.72
2022-12-12T02:02:07.879Z,-4.73
2022-12-12T02:03:07.800Z,-4.65
2022-12-12T02:04:07.774Z,-4.73
2022-12-12T02:05:08.010Z,-4.76
2022-12-12T02:06:07.474Z,-4.69
2022-12-12T02:07:08.402Z,-4.75
2022-12-12T02:08:08.221Z,-4.71
2022-12-12T02:09:08.315Z,-4.73
2022-12-12T02:10:08.030Z,-4.79
2022-12-12T02:11:08.034Z,-4.75
2022-12-12T02:12:08.243Z,-4.73
2022-12-12T02:13:08.218Z,-4.72
2022-12-12T02:14:07.944Z,-4.73
2022-12-12T02:15:07.942Z,-4.65
2022-12-12T02:16:08.418Z,-4.69
2022-12-12T02:17:08.131Z,-4.72
2022-12-12T02:18:14.546Z,-4.68
2022-12-12T02:19:07.569Z,-4.71
2022-12-12T02:20:07.800Z,-4.72
2022-12-12T02:21:08.038Z,-4.68
2022-12-12T02:22:07.765Z,-4.71
2022-12-12T02:23:08.047Z,-4.66
2022-12-12T02:24:07.706Z,-4.71
2022-12-12T02:25:07.954Z,-4.72
2022-12-12T02:26:07.673Z,-4.75
2022-12-12T02:27:07.932Z,-4.72
2022-12-12T02:28:07.368Z,-4.73
2022-12-12T02:29:07.605Z,-4.75
2022-12-12T02:30:07.845Z,-4.73
2022-12-12T02:31:08.081Z,-4.75
2022-12-12T02:32:07.792Z,-4.76
2022-12-12T02:33:07.253Z,-4.75
2022-12-12T02:34:07.255Z,-4.73
2022-12-12T02:35:07.469Z,-4.75
2022-12-12T02:36:07.439Z,-4.72
2022-12-12T02:37:07.430Z,-4.75
2022-12-12T02:38:07.397Z,-4.62
2022-12-12T02:39:07.815Z,-4.69
2022-12-12T02:40:07.095Z,-4.73
2022-12-12T02:41:07.328Z,-4.72
2022-12-12T02:42:07.567Z,-4.68
2022-12-12T02:43:07.565Z,-4.73
2022-12-12T02:44:07.008Z,-4.72
2022-12-12T02:45:06.987Z,-4.75
2022-12-12T02:46:07.483Z,-4.75
2022-12-12T02:47:07.073Z,-4.83
2022-12-12T02:48:06.911Z,-4.87
2022-12-12T02:49:07.155Z,-4.89
2022-12-12T02:50:07.131Z,-4.86
2022-12-12T02:51:06.850Z,-4.83
2022-12-12T02:52:07.331Z,-4.87
2022-12-12T02:53:07.065Z,-4.84
2022-12-12T02:54:07.043Z,-4.82
2022-12-12T02:55:07.324Z,-4.87
2022-12-12T02:56:07.246Z,-4.8
2022-12-12T02:57:06.979Z,-4.82
2022-12-12T02:58:06.949Z,-4.71
2022-12-12T02:59:07.072Z,-4.72
2022-12-12T03:00:07.185Z,-4.79
2022-12-12T03:01:07.056Z,-4.75
2022-12-12T03:02:07.073Z,-4.71
2022-12-12T03:03:07.103Z,-4.68
2022-12-12T03:04:07.086Z,-4.71
2022-12-12T03:05:06.801Z,-4.73
2022-12-12T03:06:07.045Z,-4.68
2022-12-12T03:07:06.503Z,-4.65
2022-12-12T03:08:06.920Z,-4.71
2022-12-12T03:09:06.700Z,-4.72
2022-12-12T03:10:06.705Z,-4.75
2022-12-12T03:11:06.856Z,-4.72
2022-12-12T03:12:06.915Z,-4.71
2022-12-12T03:13:06.608Z,-4.76
2022-12-12T03:14:06.581Z,-4.9
2022-12-12T03:15:06.603Z,-4.87
2022-12-12T03:16:06.978Z,-4.86
2022-12-12T03:17:06.777Z,-4.86
2022-12-12T03:18:06.757Z,-4.86
2022-12-12T03:19:06.483Z,-4.83
2022-12-12T03:20:06.453Z,-4.82
2022-12-12T03:21:06.440Z,-4.89
2022-12-12T03:22:06.669Z,-4.87
2022-12-12T03:23:06.398Z,-4.89
2022-12-12T03:24:06.630Z,-4.86
2022-12-12T03:25:06.601Z,-4.9
2022-12-12T03:26:06.582Z,-4.82
2022-12-12T03:27:06.603Z,-4.87
2022-12-12T03:28:06.535Z,-4.86
2022-12-12T03:29:06.263Z,-4.87
2022-12-12T03:30:06.505Z,-4.86
2022-12-12T03:31:06.496Z,-4.86
2022-12-12T03:32:06.443Z,-4.93
2022-12-12T03:33:06.167Z,-4.9
2022-12-12T03:49:54.923Z,-5
2022-12-12T03:50:54.844Z,-5.01
2022-12-12T03:51:54.554Z,-4.98
2022-12-12T03:52:54.530Z,-5.02
2022-12-12T03:53:54.756Z,-5.02
2022-12-12T03:54:54.477Z,-5.05
2022-12-12T03:55:54.453Z,-5.02
2022-12-12T03:56:54.426Z,-5.01
2022-12-12T03:57:54.153Z,-5.07
2022-12-12T03:58:54.645Z,-5
2022-12-12T03:59:54.364Z,-5.01
2022-12-12T04:00:54.776Z,-5.04
2022-12-12T04:01:54.870Z,-5.02
2022-12-12T04:02:54.949Z,-4.98
2022-12-12T04:03:54.677Z,-4.94
2022-12-12T04:04:54.645Z,-4.93
2022-12-12T04:05:55.226Z,-4.93
2022-12-12T04:06:54.861Z,-4.94
2022-12-12T04:07:55.361Z,-4.87
2022-12-12T04:08:55.067Z,-4.9
2022-12-12T04:09:54.798Z,-4.9
2022-12-12T04:10:54.516Z,-4.84
2022-12-12T04:11:54.751Z,-4.89
2022-12-12T04:12:54.975Z,-4.86
2022-12-12T04:13:54.705Z,-4.84
2022-12-12T04:14:54.942Z,-4.9
2022-12-12T04:15:54.653Z,-4.84
2022-12-12T04:16:54.857Z,-4.89
2022-12-12T04:17:54.615Z,-4.87
2022-12-12T04:18:54.843Z,-4.83
2022-12-12T04:19:54.775Z,-4.84
2022-12-12T04:20:54.557Z,-4.83
2022-12-12T04:21:54.894Z,-4.83
2022-12-12T04:22:54.763Z,-4.9
2022-12-12T04:23:54.732Z,-4.75
2022-12-12T04:24:54.720Z,-4.82
2022-12-12T04:25:54.449Z,-4.73
2022-12-12T04:26:54.669Z,-4.71
2022-12-12T04:27:54.646Z,-4.73
2022-12-12T04:28:54.661Z,-4.71
2022-12-12T04:29:54.601Z,-4.8
2022-12-12T04:30:54.068Z,-4.73
2022-12-12T04:31:54.493Z,-4.83
2022-12-12T04:32:54.531Z,-4.86
2022-12-12T04:33:54.259Z,-4.73
2022-12-12T04:34:54.245Z,-4.86
2022-12-12T04:35:54.458Z,-4.75
2022-12-12T04:36:54.443Z,-4.92
2022-12-12T04:37:54.506Z,-4.9
2022-12-12T04:38:54.399Z,-4.87
2022-12-12T04:39:54.374Z,-4.83
2022-12-12T04:40:54.346Z,-4.83
2022-12-12T04:41:53.817Z,-4.83
2022-12-12T04:42:54.052Z,-4.84
2022-12-12T04:43:54.281Z,-4.86
2022-12-12T04:44:53.749Z,-4.82
2022-12-12T04:45:54.143Z,-4.84
2022-12-12T04:46:53.717Z,-4.86
2022-12-12T04:47:54.196Z,-4.9
2022-12-12T04:48:58.129Z,-4.83
2022-12-12T04:49:53.898Z,-4.75
2022-12-12T04:50:53.876Z,-4.79
2022-12-12T04:51:54.112Z,-4.75
2022-12-12T04:52:53.826Z,-4.86
2022-12-12T04:53:54.191Z,-4.9
2022-12-12T04:54:53.786Z,-4.83
2022-12-12T04:55:53.761Z,-4.84
2022-12-12T04:56:53.484Z,-4.73
2022-12-12T04:57:53.715Z,-4.73
2022-12-12T04:58:53.705Z,-4.72
2022-12-12T04:59:53.682Z,-4.84
2022-12-12T05:00:54.147Z,-4.87
2022-12-12T05:01:57.763Z,-4.9
2022-12-12T05:02:53.653Z,-4.89
2022-12-12T05:03:53.838Z,-4.87
2022-12-12T05:04:53.552Z,-4.84
2022-12-12T05:05:53.802Z,-4.87
2022-12-12T05:06:53.775Z,-4.84
2022-12-12T05:07:53.661Z,-4.86
2022-12-12T05:08:53.206Z,-4.89
2022-12-12T05:09:53.793Z,-4.89
2022-12-12T05:10:53.704Z,-4.84
2022-12-12T05:11:53.659Z,-4.89
2022-12-12T05:12:53.628Z,-4.86
2022-12-12T05:13:53.614Z,-4.87
2022-12-12T05:14:53.591Z,-4.87
2022-12-12T05:15:53.565Z,-4.86
2022-12-12T05:16:53.530Z,-4.84
2022-12-12T05:17:53.267Z,-4.87
2022-12-12T05:18:52.989Z,-4.86
2022-12-12T05:19:52.974Z,-4.89
2022-12-12T05:20:53.197Z,-4.89
2022-12-12T05:21:53.431Z,-4.83
2022-12-12T05:22:53.156Z,-4.87
2022-12-12T05:23:52.883Z,-4.92
2022-12-12T05:24:53.108Z,-4.83
2022-12-12T05:25:53.707Z,-4.84
2022-12-12T05:26:53.326Z,-4.89
2022-12-12T05:27:53.303Z,-4.89
2022-12-12T05:28:53.272Z,-4.73
2022-12-12T05:29:53.073Z,-4.73
2022-12-12T05:30:53.098Z,-4.73
2022-12-12T05:31:52.958Z,-4.72
2022-12-12T05:32:52.935Z,-4.8
2022-12-12T05:33:52.908Z,-4.73
2022-12-12T05:34:52.886Z,-4.71
2022-12-12T05:35:53.122Z,-4.68
2022-12-12T05:36:53.098Z,-4.73
2022-12-12T05:37:56.712Z,-4.75
2022-12-12T05:38:52.795Z,-4.68
2022-12-12T05:39:53.033Z,-4.75
2022-12-12T05:40:53.010Z,-4.69
2022-12-12T05:41:53.062Z,-4.72
2022-12-12T05:42:52.733Z,-4.71
2022-12-12T05:43:52.696Z,-4.75
2022-12-12T05:44:52.410Z,-4.76
2022-12-12T05:45:53.033Z,-4.63
2022-12-12T05:46:52.621Z,-4.72
2022-12-12T05:47:52.347Z,-4.71
2022-12-12T05:48:52.903Z,-4.75
2022-12-12T05:49:52.546Z,-4.73
2022-12-12T05:50:52.530Z,-4.69
2022-12-12T05:51:52.497Z,-4.68
2022-12-12T05:52:52.487Z,-4.69
2022-12-12T05:53:52.726Z,-4.73
2022-12-12T05:54:52.448Z,-4.73
2022-12-12T05:55:52.414Z,-4.65
2022-12-12T05:56:52.653Z,-4.72
2022-12-12T05:57:52.713Z,-4.75
2022-12-12T05:58:52.609Z,-4.57
2022-12-12T05:59:52.586Z,-4.61
2022-12-12T06:00:52.305Z,-4.54
2022-12-12T06:01:52.540Z,-4.62
2022-12-12T06:02:52.451Z,-4.62
2022-12-12T06:03:52.734Z,-4.61
2022-12-12T06:04:52.233Z,-4.61
2022-12-12T06:05:52.199Z,-4.62
2022-12-12T06:06:52.172Z,-4.63
2022-12-12T06:07:52.360Z,-4.61
2022-12-12T06:08:52.130Z,-4.62
2022-12-12T06:09:52.368Z,-4.54
2022-12-12T06:10:51.827Z,-4.54
2022-12-12T06:11:52.318Z,-4.61
2022-12-12T06:12:52.062Z,-4.55
2022-12-12T06:13:52.357Z,-4.63
2022-12-12T06:14:52.006Z,-4.65
2022-12-12T06:15:51.956Z,-4.57
2022-12-12T06:16:51.961Z,-4.66
2022-12-12T06:17:52.190Z,-4.69
2022-12-12T06:18:51.908Z,-4.61
2022-12-12T06:19:51.926Z,-4.61
2022-12-12T06:20:51.611Z,-4.57
2022-12-12T06:21:51.583Z,-4.59
2022-12-12T06:22:58.446Z,-4.63
2022-12-12T06:23:52.062Z,-4.61
2022-12-12T06:24:51.784Z,-4.53
2022-12-12T06:25:51.756Z,-4.55
2022-12-12T06:26:51.730Z,-4.66
2022-12-12T06:27:51.978Z,-4.61
2022-12-12T06:28:51.943Z,-4.57
2022-12-12T06:29:52.015Z,-4.68
2022-12-12T06:30:51.992Z,-4.65
2022-12-12T06:31:51.615Z,-4.57
2022-12-12T06:32:51.947Z,-4.59
2022-12-12T06:33:51.591Z,-4.71
2022-12-12T06:34:51.552Z,-4.59
2022-12-12T06:35:51.534Z,-4.65
2022-12-12T06:36:51.512Z,-4.73
2022-12-12T06:37:51.493Z,-4.72
2022-12-12T06:38:51.725Z,-4.79
2022-12-12T06:39:51.700Z,-4.71
2022-12-12T06:40:51.681Z,-4.75
2022-12-12T06:41:51.399Z,-4.62
2022-12-12T06:42:53.501Z,-4.66
2022-12-12T06:43:51.621Z,-4.59
2022-12-12T06:44:51.332Z,-4.75
2022-12-12T06:45:51.660Z,-4.57
2022-12-12T06:46:51.640Z,-4.59
2022-12-12T06:47:51.270Z,-4.66
2022-12-12T06:48:51.254Z,-4.55
2022-12-12T06:49:51.236Z,-4.59
2022-12-12T06:50:51.195Z,-4.53
2022-12-12T06:51:50.944Z,-4.54
2022-12-12T06:52:50.923Z,-4.62
2022-12-12T06:53:51.386Z,-4.69
2022-12-12T06:54:51.428Z,-4.66
2022-12-12T06:55:51.361Z,-4.68
2022-12-12T06:56:53.616Z,-4.59
2022-12-12T06:57:51.045Z,-4.62
2022-12-12T06:58:51.016Z,-4.62
2022-12-12T06:59:51.263Z,-4.59
2022-12-12T07:00:51.235Z,-4.55
2022-12-12T07:01:51.539Z,-4.63
2022-12-12T07:02:51.102Z,-4.63
2022-12-12T07:03:51.173Z,-4.65
2022-12-12T07:04:51.152Z,-4.62
2022-12-12T07:05:51.128Z,-4.54
2022-12-12T07:06:50.854Z,-4.54
2022-12-12T07:07:51.311Z,-4.66
2022-12-12T07:08:50.546Z,-4.62
2022-12-12T07:09:50.790Z,-4.63
2022-12-12T07:10:51.021Z,-4.63
2022-12-12T07:11:50.735Z,-4.54
2022-12-12T07:12:58.382Z,-4.51
2022-12-12T07:13:50.695Z,-4.68
2022-12-12T07:14:50.527Z,-4.59
2022-12-12T07:15:50.848Z,-4.54
2022-12-12T07:16:50.371Z,-4.68
2022-12-12T07:17:50.942Z,-4.57
2022-12-12T07:18:50.585Z,-4.51
2022-12-12T07:19:50.817Z,-4.54
2022-12-12T07:20:50.794Z,-4.62
2022-12-12T07:21:50.263Z,-4.53
2022-12-12T07:22:50.235Z,-4.51
2022-12-12T07:23:50.469Z,-4.63
2022-12-12T07:24:50.569Z,-4.71
2022-12-12T07:25:50.436Z,-4.55
2022-12-12T07:26:50.407Z,-4.65
2022-12-12T07:27:50.395Z,-4.63
2022-12-12T07:28:50.372Z,-4.55
2022-12-12T07:29:50.711Z,-4.59
2022-12-12T07:30:50.470Z,-4.69
2022-12-12T07:31:50.585Z,-4.61
2022-12-12T07:32:50.279Z,-4.57
2022-12-12T07:33:50.580Z,-4.62
2022-12-12T07:34:50.496Z,-4.59
2022-12-12T07:35:50.213Z,-4.54
2022-12-12T07:36:50.456Z,-4.63
2022-12-12T07:37:49.973Z,-4.63
2022-12-12T07:38:50.148Z,-4.66
2022-12-12T07:39:49.887Z,-4.53
2022-12-12T07:40:50.095Z,-4.57
2022-12-12T07:41:50.319Z,-4.59
2022-12-12T07:42:50.047Z,-4.61
2022-12-12T07:43:50.039Z,-4.57
2022-12-12T07:44:50.006Z,-4.57
2022-12-12T07:45:50.256Z,-4.47
2022-12-12T07:46:50.230Z,-4.55
2022-12-12T07:47:49.951Z,-4.53
2022-12-12T07:48:49.937Z,-4.48
2022-12-12T07:49:50.338Z,-4.41
2022-12-12T07:50:49.868Z,-4.36
2022-12-12T07:51:53.696Z,-4.36
2022-12-12T07:52:49.831Z,-4.34
2022-12-12T07:53:49.811Z,-4.27
2022-12-12T07:54:50.037Z,-4.3
2022-12-12T07:55:49.759Z,-4.33
2022-12-12T07:56:49.490Z,-4.22
2022-12-12T07:57:49.715Z,-4.23
2022-12-12T07:58:49.965Z,-4.22
2022-12-12T07:59:49.668Z,-4.26
2022-12-12T08:00:49.660Z,-4.27
2022-12-12T08:01:49.791Z,-4.33
2022-12-12T08:02:49.609Z,-4.23
2022-12-12T08:03:49.860Z,-4.26
2022-12-12T08:04:49.722Z,-4.23
2022-12-12T08:05:49.875Z,-4.26
2022-12-12T08:06:52.716Z,-4.22
2022-12-12T08:07:49.945Z,-4.11
2022-12-12T08:08:49.736Z,-4.16
2022-12-12T08:09:49.718Z,-4.05
2022-12-12T08:10:49.441Z,-4.11
2022-12-12T08:11:51.680Z,-4.06
2022-12-12T08:12:49.642Z,-4.14
2022-12-12T08:13:49.646Z,-4.14
2022-12-12T08:14:49.353Z,-4.16
2022-12-12T08:15:49.482Z,-4.18
2022-12-12T08:16:49.051Z,-4.08
2022-12-12T08:17:49.547Z,-4.26
2022-12-12T08:18:49.527Z,-4.14
2022-12-12T08:19:49.234Z,-4.14
2022-12-12T08:20:49.552Z,-4.09
2022-12-12T08:21:49.574Z,-4.09
2022-12-12T08:22:49.175Z,-4.14
2022-12-12T08:23:49.150Z,-4.12
2022-12-12T08:24:49.142Z,-4.12
2022-12-12T08:25:49.106Z,-4.12
2022-12-12T08:26:49.083Z,-4.08
2022-12-12T08:27:49.059Z,-4
2022-12-12T08:28:49.340Z,-3.96
2022-12-12T08:29:48.761Z,-3.97
2022-12-12T08:30:48.992Z,-3.97
2022-12-12T08:31:49.429Z,-3.98
2022-12-12T08:32:49.224Z,-3.9
2022-12-12T08:33:48.674Z,-3.9
2022-12-12T08:34:48.648Z,-3.93
2022-12-12T08:35:48.913Z,-3.87
2022-12-12T08:36:48.871Z,-3.8
2022-12-12T08:37:49.194Z,-3.8
2022-12-12T08:38:49.101Z,-3.82
2022-12-12T08:39:55.678Z,-3.72
2022-12-12T08:40:48.777Z,-3.66
2022-12-12T08:41:48.762Z,-3.57
2022-12-12T08:42:48.469Z,-3.53
2022-12-12T08:43:48.451Z,-3.51
2022-12-12T08:44:48.684Z,-3.54
2022-12-12T08:45:48.927Z,-3.5
2022-12-12T08:46:48.922Z,-3.51
2022-12-12T08:47:48.877Z,-3.53
2022-12-12T08:48:48.595Z,-3.45
2022-12-12T08:49:48.845Z,-3.39
2022-12-12T08:50:48.829Z,-3.35
2022-12-12T08:51:48.790Z,-3.32
2022-12-12T08:52:48.259Z,-3.19
2022-12-12T08:53:48.831Z,-3.11
2022-12-12T08:54:48.471Z,-3.01
2022-12-12T08:55:48.192Z,-3.07
2022-12-12T08:56:48.421Z,-3
2022-12-12T08:57:48.402Z,-3.01
2022-12-12T08:58:48.396Z,-2.91
2022-12-12T08:59:48.108Z,-2.93
2022-12-12T09:00:48.085Z,-3
2022-12-12T09:01:48.690Z,-3.03
2022-12-12T09:02:49.036Z,-3.07
2022-12-12T09:03:48.272Z,-3.07
2022-12-12T09:04:48.510Z,-3.06
2022-12-12T09:05:48.223Z,-3.03
2022-12-12T09:06:48.479Z,-3.11
2022-12-12T09:07:48.562Z,-3.09
2022-12-12T09:08:48.167Z,-3.11
2022-12-12T09:09:48.473Z,-3.14
2022-12-12T09:10:48.380Z,-3.12
2022-12-12T09:11:48.362Z,-3.14
2022-12-12T09:12:48.075Z,-3.22
2022-12-12T09:13:48.050Z,-3.28
2022-12-12T09:14:48.326Z,-3.32
2022-12-12T09:15:48.473Z,-3.32
2022-12-12T09:16:48.170Z,-3.36
2022-12-12T09:17:47.972Z,-3.33
2022-12-12T09:18:53.490Z,-3.38
2022-12-12T09:19:47.989Z,-3.38
2022-12-12T09:20:47.900Z,-3.39
2022-12-12T09:21:47.883Z,-3.54
2022-12-12T09:22:48.128Z,-3.42
2022-12-12T09:23:48.106Z,-3.54
2022-12-12T09:24:48.079Z,-3.58
2022-12-12T09:25:48.148Z,-3.58
2022-12-12T09:26:47.776Z,-3.57
2022-12-12T09:27:48.008Z,-3.53
2022-12-12T09:28:47.742Z,-3.57
2022-12-12T09:29:47.981Z,-3.56
2022-12-12T09:30:47.720Z,-3.66
2022-12-12T09:31:48.185Z,-3.53
2022-12-12T09:32:47.683Z,-3.57
2022-12-12T09:33:47.645Z,-3.54
2022-12-12T09:34:47.864Z,-3.6
2022-12-12T09:35:47.851Z,-3.53
2022-12-12T09:36:47.555Z,-3.58
2022-12-12T09:37:47.534Z,-3.6
2022-12-12T09:38:47.818Z,-3.63
2022-12-12T09:39:47.490Z,-3.6
2022-12-12T09:40:47.487Z,-3.66
2022-12-12T09:41:47.775Z,-3.66
2022-12-12T09:42:47.170Z,-3.63
2022-12-12T09:43:47.664Z,-3.72
2022-12-12T09:44:47.641Z,-3.56
2022-12-12T09:45:47.741Z,-3.56
2022-12-12T09:46:47.596Z,-3.51
2022-12-12T09:47:47.318Z,-3.54
2022-12-12T09:48:47.560Z,-3.54
2022-12-12T09:49:48.891Z,-3.51
2022-12-12T09:50:46.990Z,-3.54
2022-12-12T09:51:47.497Z,-3.53
2022-12-12T09:52:47.461Z,-3.53
2022-12-12T09:53:46.928Z,-3.48
2022-12-12T09:54:47.415Z,-3.5
2022-12-12T09:55:47.406Z,-3.53
2022-12-12T09:56:47.380Z,-3.51
2022-12-12T09:57:47.460Z,-3.38
2022-12-12T09:58:59.015Z,-3.47
2022-12-12T09:59:47.568Z,-3.45
2022-12-12T10:00:47.921Z,-3.36
2022-12-12T10:01:48.029Z,-3.4
2022-12-12T10:02:47.777Z,-3.4
2022-12-12T10:03:47.764Z,-3.43
2022-12-12T10:04:54.213Z,-3.4
2022-12-12T10:05:48.116Z,-3.4
2022-12-12T10:06:52.304Z,-3.53
2022-12-12T10:07:52.701Z,-3.5
2022-12-12T10:08:52.005Z,-3.51
2022-12-12T10:09:52.250Z,-3.51
2022-12-12T10:10:52.466Z,-3.48
2022-12-12T10:11:52.204Z,-3.47
2022-12-12T10:12:52.531Z,-3.48
2022-12-12T10:13:52.415Z,-3.5
2022-12-12T10:14:52.130Z,-3.45
2022-12-12T10:15:52.109Z,-3.4
2022-12-12T10:17:00.931Z,-3.39
2022-12-12T10:17:52.074Z,-3.4
2022-12-12T10:18:52.330Z,-3.43
2022-12-12T10:19:52.038Z,-3.39
2022-12-12T10:20:52.004Z,-3.36
2022-12-12T10:21:51.718Z,-3.33
2022-12-12T10:22:52.217Z,-3.29
2022-12-12T10:23:51.689Z,-3.32
2022-12-12T10:24:51.907Z,-3.22
2022-12-12T10:25:51.891Z,-3.21
2022-12-12T10:26:51.868Z,-3.22
2022-12-12T10:27:51.859Z,-3.09
2022-12-12T10:28:52.176Z,-3.01
2022-12-12T10:29:51.828Z,-3.06
2022-12-12T10:30:51.781Z,-3.04
2022-12-12T10:31:52.265Z,-2.97
2022-12-12T10:32:52.030Z,-3.04
2022-12-12T10:33:51.987Z,-2.96
2022-12-12T10:34:51.946Z,-2.91
2022-12-12T10:35:51.934Z,-2.97
2022-12-12T10:36:51.681Z,-3.01
2022-12-12T10:37:51.884Z,-3.07
2022-12-12T10:38:51.610Z,-3.01
2022-12-12T10:39:51.580Z,-2.99
2022-12-12T10:40:51.562Z,-2.93
2022-12-12T10:41:51.795Z,-2.91
2022-12-12T10:42:51.271Z,-2.86
2022-12-12T10:43:51.500Z,-2.94
2022-12-12T10:44:52.389Z,-2.9
2022-12-12T10:45:51.752Z,-2.91
2022-12-12T10:46:51.906Z,-2.94
2022-12-12T10:47:51.674Z,-2.86
2022-12-12T10:48:51.153Z,-2.93
2022-12-12T10:49:51.618Z,-2.88
2022-12-12T10:50:51.359Z,-2.96
2022-12-12T10:51:51.592Z,-2.93
2022-12-12T10:52:51.320Z,-2.83
2022-12-12T10:53:51.542Z,-2.94
2022-12-12T10:54:51.555Z,-2.9
2022-12-12T10:55:51.246Z,-2.99
2022-12-12T10:56:51.220Z,-2.96
2022-12-12T10:57:51.457Z,-2.86
2022-12-12T10:58:51.432Z,-2.91
2022-12-12T10:59:51.409Z,-2.86
2022-12-12T11:00:51.767Z,-2.79
2022-12-12T11:02:13.945Z,-2.76
2022-12-12T11:02:55.521Z,-2.75
2022-12-12T11:03:51.324Z,-2.75
2022-12-12T11:04:51.045Z,-2.73
2022-12-12T11:05:51.020Z,-2.64
2022-12-12T11:06:51.282Z,-2.7
2022-12-12T11:07:51.250Z,-2.62
2022-12-12T11:08:51.218Z,-2.58
2022-12-12T11:09:50.681Z,-2.6
2022-12-12T11:10:50.918Z,-2.5
2022-12-12T11:11:51.159Z,-2.5
2022-12-12T11:12:50.876Z,-2.47
2022-12-12T11:13:51.119Z,-2.5
2022-12-12T11:14:51.089Z,-2.53
2022-12-12T11:15:50.809Z,-2.49
2022-12-12T11:16:51.424Z,-2.46
2022-12-12T11:17:50.762Z,-2.43
2022-12-12T11:18:50.490Z,-2.46
2022-12-12T11:19:50.732Z,-2.42
2022-12-12T11:20:51.015Z,-2.37
2022-12-12T11:21:50.683Z,-2.34
2022-12-12T11:22:50.674Z,-2.43
2022-12-12T11:23:50.914Z,-2.34
2022-12-12T11:24:50.630Z,-2.18
2022-12-12T11:25:50.618Z,-2.15
2022-12-12T11:26:50.834Z,-2.14
2022-12-12T11:27:50.560Z,-2.14
2022-12-12T11:28:50.788Z,-2.14
2022-12-12T11:29:50.502Z,-2.14
2022-12-12T11:30:50.228Z,-2.05
2022-12-12T11:31:50.919Z,-2.03
2022-12-12T11:32:50.794Z,-2.09
2022-12-12T11:33:50.420Z,-2.06
2022-12-12T11:34:50.400Z,-2.09
2022-12-12T11:35:52.615Z,-2.09
2022-12-12T11:36:50.363Z,-2.18
2022-12-12T11:37:50.087Z,-2.23
2022-12-12T11:38:50.316Z,-2.24
2022-12-12T11:39:50.419Z,-2.21
2022-12-12T11:40:50.530Z,-2.25
2022-12-12T11:41:50.301Z,-2.27
2022-12-12T11:42:50.498Z,-2.23
2022-12-12T11:43:50.467Z,-2.36
2022-12-12T11:44:50.192Z,-2.4
2022-12-12T11:45:50.099Z,-2.44
2022-12-12T11:46:50.415Z,-2.32
2022-12-12T11:47:49.873Z,-2.36
2022-12-12T11:48:50.447Z,-2.39
2022-12-12T11:49:50.111Z,-2.36
2022-12-12T11:50:50.063Z,-2.36
2022-12-12T11:51:51.165Z,-2.28
2022-12-12T11:52:50.907Z,-2.43
2022-12-12T11:53:50.865Z,-2.21
2022-12-12T11:54:51.098Z,-2.23
2022-12-12T11:55:51.077Z,-2.24
2022-12-12T11:56:50.805Z,-2.24
2022-12-12T11:57:51.036Z,-2.24
2022-12-12T11:58:51.016Z,-2.23
2022-12-12T11:59:51.124Z,-2.23
2022-12-12T12:00:50.967Z,-2.21
2022-12-12T12:01:50.949Z,-2.2
2022-12-12T12:02:51.071Z,-2.18
2022-12-12T12:03:50.655Z,-2.15
2022-12-12T12:04:57.831Z,-2.21
2022-12-12T12:05:50.608Z,-2.21
2022-12-12T12:06:50.334Z,-2.18
2022-12-12T12:07:51.179Z,-2.17
2022-12-12T12:08:50.816Z,-2.17
2022-12-12T12:09:50.531Z,-2.25
2022-12-12T12:10:50.242Z,-2.2
2022-12-12T12:11:50.484Z,-2.2
2022-12-12T12:12:50.467Z,-2.25
2022-12-12T12:13:50.444Z,-2.23
2022-12-12T12:14:50.160Z,-2.17
2022-12-12T12:15:50.465Z,-2.2
2022-12-12T12:16:50.528Z,-2.24
2022-12-12T12:17:50.625Z,-2.25
2022-12-12T12:18:50.327Z,-2.24
2022-12-12T12:19:50.569Z,-2.24
2022-12-12T12:20:50.644Z,-2.24
2022-12-12T12:21:50.534Z,-2.23
2022-12-12T12:22:50.253Z,-2.32
2022-12-12T12:23:54.636Z,-2.43
2022-12-12T12:24:50.206Z,-2.36
2022-12-12T12:25:51.077Z,-2.4
2022-12-12T12:26:50.789Z,-2.37
2022-12-12T12:27:51.021Z,-2.44
2022-12-12T12:28:50.749Z,-2.36
2022-12-12T12:29:50.804Z,-2.3
2022-12-12T12:30:50.855Z,-2.36
2022-12-12T12:31:50.680Z,-2.39
2022-12-12T12:32:50.924Z,-2.3
2022-12-12T12:33:50.644Z,-2.3
2022-12-12T12:34:50.883Z,-2.32
2022-12-12T12:35:50.345Z,-2.36
2022-12-12T12:36:50.927Z,-2.36
2022-12-12T12:37:51.113Z,-2.4
2022-12-12T12:38:51.087Z,-2.42
2022-12-12T12:39:50.803Z,-2.24
2022-12-12T12:40:51.063Z,-2.21
2022-12-12T12:41:50.504Z,-2.24
2022-12-12T12:42:54.335Z,-2.28
2022-12-12T12:43:50.737Z,-2.25
2022-12-12T12:44:50.703Z,-2.2
2022-12-12T12:45:51.083Z,-2.28
2022-12-12T12:46:50.402Z,-2.27
2022-12-12T12:47:50.892Z,-2.27
2022-12-12T12:48:50.896Z,-2.2
2022-12-12T12:49:50.755Z,-2.2
2022-12-12T12:50:50.846Z,-2.25
2022-12-12T12:51:55.336Z,-2.24
2022-12-12T12:52:50.817Z,-2.23
2022-12-12T12:53:50.251Z,-2.24
2022-12-12T12:54:50.746Z,-2.21
2022-12-12T12:55:50.720Z,-2.24
2022-12-12T12:56:50.450Z,-2.21
2022-12-12T12:57:50.425Z,-2.28
2022-12-12T12:58:50.654Z,-2.21
2022-12-12T12:59:50.450Z,-2.28
2022-12-12T13:00:50.613Z,-2.34
2022-12-12T13:01:50.565Z,-2.27
2022-12-12T13:02:50.509Z,-2.32
2022-12-12T13:03:50.299Z,-2.27
2022-12-12T13:04:50.536Z,-2.3
2022-12-12T13:05:50.259Z,-2.3
2022-12-12T13:06:50.492Z,-2.28
2022-12-12T13:07:50.641Z,-2.3
2022-12-12T13:08:50.475Z,-2.23
2022-12-12T13:09:50.524Z,-2.27
2022-12-12T13:10:49.895Z,-2.36
2022-12-12T13:11:50.406Z,-2.28